Time;durP1;ratioP1;P1;durP2;ratioP2;P2;SDS_P1;SDS_P2;PMS_P1;PMS_P2;Temp;Humidity;BMP_temperature;BMP_pressure;BME280_temperature;BME280_humidity;BME280_pressure;Samples;Min_cycle;Max_cycle;Signal;HPM_P1;HPM_P2
2021/05/09 00:01:31;;;;;;;10.27;5.90;;;14.70;73.90;;;;;;5020122;28;20108;-77
2021/05/09 00:03:56;;;;;;;13.85;6.55;;;14.70;74.20;;;;;;5020459;28;20071;-76
2021/05/09 00:06:23;;;;;;;11.10;5.80;;;14.60;74.30;;;;;;5022103;28;20463;-76
2021/05/09 00:08:49;;;;;;;9.60;5.63;;;14.60;74.40;;;;;;5018650;28;20033;-83
2021/05/09 00:11:15;;;;;;;10.38;5.88;;;14.60;74.80;;;;;;5020890;28;20045;-79
2021/05/09 00:13:42;;;;;;;10.82;5.93;;;14.60;74.80;;;;;;5021978;28;20041;-84
2021/05/09 00:16:08;;;;;;;10.55;5.75;;;14.60;74.90;;;;;;5019841;28;20034;-80
2021/05/09 00:18:34;;;;;;;11.15;6.28;;;14.60;74.90;;;;;;5021164;28;20178;-77
2021/05/09 00:21:00;;;;;;;10.88;5.28;;;14.60;75.20;;;;;;5020431;28;21259;-79
2021/05/09 00:23:26;;;;;;;10.15;5.97;;;14.60;75.40;;;;;;5021355;28;20049;-78
2021/05/09 00:25:52;;;;;;;11.27;6.38;;;14.50;75.50;;;;;;5015877;28;20946;-75
2021/05/09 00:28:18;;;;;;;11.52;6.07;;;14.50;75.70;;;;;;5020168;28;20142;-78
2021/05/09 00:30:44;;;;;;;16.45;6.55;;;14.40;75.90;;;;;;5020680;28;20045;-75
2021/05/09 00:33:09;;;;;;;11.13;5.97;;;14.40;75.90;;;;;;5019784;28;20037;-77
2021/05/09 00:35:35;;;;;;;8.27;5.47;;;14.40;76.30;;;;;;5022764;28;20041;-80
2021/05/09 00:38:01;;;;;;;11.05;5.35;;;14.30;76.20;;;;;;5019478;28;20473;-82
2021/05/09 00:40:26;;;;;;;11.27;5.88;;;14.30;76.40;;;;;;5010964;28;20052;-80
2021/05/09 00:42:56;;;;;;;10.23;6.03;;;14.30;76.70;;;;;;5017031;28;20123;-76
2021/05/09 00:45:22;;;;;;;11.90;6.68;;;14.30;76.40;;;;;;5018559;28;20103;-82
2021/05/09 00:47:50;;;;;;;9.70;5.28;;;14.20;76.80;;;;;;5010390;28;20312;-77
2021/05/09 00:50:18;;;;;;;12.50;5.60;;;14.20;76.70;;;;;;4998031;28;20057;-77
2021/05/09 00:52:46;;;;;;;9.23;5.13;;;14.20;76.90;;;;;;5014377;28;20401;-75
2021/05/09 00:55:13;;;;;;;9.65;5.45;;;14.20;77.00;;;;;;5017502;28;20038;-75
2021/05/09 00:57:41;;;;;;;11.32;6.15;;;14.10;77.20;;;;;;5022696;28;20385;-75
2021/05/09 01:00:09;;;;;;;10.45;5.40;;;14.20;77.20;;;;;;5022172;28;20037;-76
2021/05/09 01:02:35;;;;;;;9.38;5.13;;;14.10;77.30;;;;;;5021280;28;20075;-81
2021/05/09 01:05:03;;;;;;;10.43;6.00;;;14.10;77.40;;;;;;5019276;28;20108;-76
2021/05/09 01:07:30;;;;;;;9.93;5.60;;;14.10;77.50;;;;;;5019517;28;20118;-77
2021/05/09 01:09:58;;;;;;;10.63;5.45;;;14.00;77.70;;;;;;5015199;28;20081;-75
2021/05/09 01:12:24;;;;;;;10.20;5.65;;;14.00;77.90;;;;;;5000660;28;20042;-75
2021/05/09 01:14:49;;;;;;;11.25;5.60;;;13.90;77.80;;;;;;5014439;28;20045;-75
2021/05/09 01:17:15;;;;;;;7.80;5.32;;;14.00;78.00;;;;;;5019529;28;20030;-75
2021/05/09 01:19:41;;;;;;;9.80;5.47;;;13.90;77.80;;;;;;5018584;28;20041;-78
2021/05/09 01:22:09;;;;;;;11.30;6.45;;;13.90;78.00;;;;;;5021253;28;20044;-75
2021/05/09 01:24:35;;;;;;;10.38;5.85;;;13.90;78.20;;;;;;5022294;28;20037;-77
2021/05/09 01:27:02;;;;;;;8.80;5.57;;;13.90;78.40;;;;;;5018916;28;20046;-77
2021/05/09 01:29:28;;;;;;;9.32;5.43;;;13.90;78.10;;;;;;4999085;28;20125;-75
2021/05/09 01:31:54;;;;;;;9.07;5.50;;;13.90;78.30;;;;;;5018159;28;20065;-79
2021/05/09 01:34:19;;;;;;;9.07;5.53;;;13.90;78.30;;;;;;5020635;28;20152;-76
2021/05/09 01:36:45;;;;;;;10.10;5.93;;;13.80;78.60;;;;;;5020802;28;20428;-79
2021/05/09 01:39:11;;;;;;;12.48;6.18;;;13.80;78.60;;;;;;5020259;28;20527;-79
2021/05/09 01:41:36;;;;;;;9.85;5.60;;;13.80;78.50;;;;;;5019915;28;20034;-81
2021/05/09 01:44:02;;;;;;;11.80;6.45;;;13.80;78.50;;;;;;5018345;28;20046;-75
2021/05/09 01:46:28;;;;;;;10.05;5.78;;;13.80;78.60;;;;;;5018278;28;20056;-75
2021/05/09 01:48:54;;;;;;;9.82;5.55;;;13.80;78.60;;;;;;5018469;28;20109;-83
2021/05/09 01:51:20;;;;;;;9.68;5.65;;;13.80;78.30;;;;;;5019082;28;20041;-77
2021/05/09 01:53:47;;;;;;;10.50;5.72;;;13.80;78.60;;;;;;5018661;28;20393;-78
2021/05/09 01:56:14;;;;;;;11.25;6.07;;;13.80;78.50;;;;;;5018120;28;20033;-81
2021/05/09 01:58:40;;;;;;;13.93;5.57;;;13.80;78.40;;;;;;5022858;28;20029;-78
2021/05/09 02:01:05;;;;;;;10.35;5.68;;;13.80;78.40;;;;;;5022534;28;20361;-78
2021/05/09 02:03:31;;;;;;;8.55;5.65;;;13.80;78.50;;;;;;5025046;28;20480;-76
2021/05/09 02:05:57;;;;;;;11.05;5.78;;;13.70;78.40;;;;;;5020735;28;20035;-78
2021/05/09 02:08:23;;;;;;;9.40;5.57;;;13.70;78.50;;;;;;5022511;28;20113;-77
2021/05/09 02:10:48;;;;;;;9.70;5.82;;;13.70;78.60;;;;;;5025456;28;20056;-77
2021/05/09 02:13:14;;;;;;;9.65;5.57;;;13.60;78.70;;;;;;5016316;28;20543;-83
2021/05/09 02:15:40;;;;;;;10.40;5.63;;;13.60;78.80;;;;;;5003486;28;20993;-76
2021/05/09 02:18:05;;;;;;;8.40;5.15;;;13.60;78.90;;;;;;5004155;28;20037;-77
2021/05/09 02:20:31;;;;;;;9.25;4.78;;;13.50;79.00;;;;;;5024063;28;20033;-77
2021/05/09 02:22:57;;;;;;;9.15;4.93;;;13.40;79.10;;;;;;5021084;28;20568;-76
2021/05/09 02:25:23;;;;;;;9.63;5.10;;;13.40;79.20;;;;;;5011988;28;20508;-81
2021/05/09 02:27:48;;;;;;;9.68;4.90;;;13.40;79.20;;;;;;5001686;28;20042;-76
2021/05/09 02:30:15;;;;;;;9.52;5.40;;;13.30;79.40;;;;;;5004625;28;20121;-76
2021/05/09 02:32:41;;;;;;;10.25;4.82;;;13.30;79.50;;;;;;5022630;28;20034;-80
2021/05/09 02:35:07;;;;;;;10.35;5.28;;;13.20;79.60;;;;;;5023017;28;20053;-78
2021/05/09 02:37:32;;;;;;;10.73;6.18;;;13.20;79.50;;;;;;5021751;28;20113;-81
2021/05/09 02:39:58;;;;;;;10.85;6.20;;;13.10;79.80;;;;;;5022034;28;20422;-81
2021/05/09 02:42:24;;;;;;;8.52;5.78;;;13.10;80.10;;;;;;5023193;28;20037;-76
2021/05/09 02:44:49;;;;;;;12.55;5.97;;;13.20;80.20;;;;;;5022482;28;20092;-76
2021/05/09 02:47:31;;;;;;;10.07;5.32;;;13.10;80.10;;;;;;5019536;28;20030;-77
2021/05/09 02:49:57;;;;;;;11.85;5.78;;;13.20;79.80;;;;;;5021144;28;20037;-76
2021/05/09 02:52:23;;;;;;;9.18;5.00;;;13.20;79.60;;;;;;5020433;28;20128;-79
2021/05/09 02:54:49;;;;;;;8.98;4.70;;;13.20;79.40;;;;;;5020465;28;20205;-78
2021/05/09 02:57:15;;;;;;;8.57;4.75;;;13.20;79.40;;;;;;5021413;28;20091;-78
2021/05/09 02:59:41;;;;;;;8.82;5.00;;;13.10;79.50;;;;;;5021917;28;20037;-76
2021/05/09 03:02:06;;;;;;;10.52;5.32;;;13.10;79.40;;;;;;5021768;28;20056;-80
2021/05/09 03:04:32;;;;;;;8.68;5.28;;;13.10;79.40;;;;;;5021153;28;20034;-82
2021/05/09 03:06:57;;;;;;;9.52;5.38;;;13.10;79.50;;;;;;5016917;28;20132;-76
2021/05/09 03:09:23;;;;;;;10.52;5.18;;;13.10;79.50;;;;;;5010900;28;20038;-76
2021/05/09 03:11:49;;;;;;;8.73;5.07;;;13.10;79.50;;;;;;5009476;28;20048;-77
2021/05/09 03:14:14;;;;;;;9.23;5.20;;;13.10;79.50;;;;;;5016516;28;20049;-81
2021/05/09 03:16:40;;;;;;;9.18;5.43;;;13.10;79.40;;;;;;5018791;28;20486;-77
2021/05/09 03:19:06;;;;;;;9.50;5.00;;;13.10;79.40;;;;;;5018981;28;20033;-76
2021/05/09 03:21:31;;;;;;;8.95;5.13;;;13.10;79.40;;;;;;5022077;28;20041;-77
2021/05/09 03:23:57;;;;;;;9.68;5.82;;;13.00;79.50;;;;;;5021458;28;20480;-76
2021/05/09 03:26:23;;;;;;;9.32;5.93;;;13.10;79.50;;;;;;5020417;28;20040;-78
2021/05/09 03:28:48;;;;;;;9.65;5.78;;;13.00;79.40;;;;;;5022532;28;20041;-77
2021/05/09 03:31:14;;;;;;;12.48;6.03;;;13.00;79.30;;;;;;5014270;28;20049;-77
2021/05/09 03:33:40;;;;;;;9.88;6.65;;;13.00;79.40;;;;;;5022104;28;20184;-77
2021/05/09 03:36:06;;;;;;;11.48;5.80;;;13.00;79.80;;;;;;5019966;28;20549;-83
2021/05/09 03:38:31;;;;;;;12.52;6.75;;;13.00;79.50;;;;;;5023037;28;20075;-78
2021/05/09 03:40:57;;;;;;;12.88;6.70;;;13.10;79.20;;;;;;5021675;28;20117;-76
2021/05/09 03:43:22;;;;;;;11.10;6.63;;;13.10;79.00;;;;;;5019376;28;20065;-81
2021/05/09 03:45:48;;;;;;;11.27;7.53;;;13.10;78.90;;;;;;5021669;28;20357;-78
2021/05/09 03:48:14;;;;;;;10.75;6.57;;;13.10;78.60;;;;;;5019655;28;20390;-77
2021/05/09 03:50:39;;;;;;;11.57;6.68;;;13.20;78.60;;;;;;5022514;28;20104;-82
2021/05/09 03:53:05;;;;;;;12.35;6.85;;;13.10;78.60;;;;;;5023392;28;20041;-78
2021/05/09 03:55:31;;;;;;;9.73;6.20;;;13.10;78.50;;;;;;5016657;28;20045;-80
2021/05/09 03:57:57;;;;;;;12.82;7.05;;;13.10;78.50;;;;;;5020583;28;20064;-79
2021/05/09 04:00:23;;;;;;;12.15;6.40;;;13.10;78.60;;;;;;5019968;28;20047;-77
2021/05/09 04:02:48;;;;;;;9.95;7.05;;;13.00;78.80;;;;;;5021576;28;20030;-77
2021/05/09 04:05:14;;;;;;;12.38;7.78;;;13.00;78.90;;;;;;5019448;28;20046;-78
2021/05/09 04:07:40;;;;;;;12.13;7.47;;;13.00;79.00;;;;;;5021189;28;20026;-76
2021/05/09 04:10:06;;;;;;;11.10;7.03;;;12.90;78.90;;;;;;5019456;28;20029;-77
2021/05/09 04:12:32;;;;;;;11.77;7.97;;;12.90;79.00;;;;;;5018891;28;20501;-76
2021/05/09 04:14:57;;;;;;;14.02;7.70;;;12.90;79.10;;;;;;5021231;28;20041;-76
2021/05/09 04:17:23;;;;;;;12.95;7.65;;;12.80;79.10;;;;;;5018246;28;20051;-76
2021/05/09 04:19:49;;;;;;;11.60;7.40;;;12.80;79.10;;;;;;5004552;28;20068;-77
2021/05/09 04:22:15;;;;;;;12.98;8.30;;;12.80;79.00;;;;;;5017414;28;20444;-77
2021/05/09 04:24:40;;;;;;;13.93;7.97;;;12.90;79.00;;;;;;5017124;28;20028;-76
2021/05/09 04:27:06;;;;;;;11.35;7.38;;;12.90;79.00;;;;;;5020933;28;20393;-82
2021/05/09 04:29:32;;;;;;;14.45;8.13;;;12.90;79.00;;;;;;5020057;28;20054;-81
2021/05/09 04:31:57;;;;;;;11.15;8.02;;;13.00;78.80;;;;;;5016977;28;20037;-80
2021/05/09 04:34:23;;;;;;;13.98;8.07;;;13.10;78.90;;;;;;5019696;28;20514;-76
2021/05/09 04:36:49;;;;;;;12.23;7.28;;;13.10;78.70;;;;;;5017294;28;20052;-82
2021/05/09 04:39:14;;;;;;;13.00;6.95;;;13.20;78.60;;;;;;5018379;28;20037;-82
2021/05/09 04:41:40;;;;;;;9.60;6.65;;;13.30;78.30;;;;;;5017645;28;20542;-76
2021/05/09 04:44:06;;;;;;;11.10;7.30;;;13.50;78.00;;;;;;5019630;28;20056;-76
2021/05/09 04:46:31;;;;;;;11.00;7.55;;;13.60;77.30;;;;;;5021308;28;20473;-77
2021/05/09 04:48:57;;;;;;;11.35;6.75;;;13.60;77.20;;;;;;5018270;28;20429;-77
2021/05/09 04:51:23;;;;;;;13.32;7.18;;;13.70;77.20;;;;;;5017657;28;20033;-81
2021/05/09 04:53:48;;;;;;;9.93;6.72;;;13.80;76.40;;;;;;5018902;28;20049;-80
2021/05/09 04:56:17;;;;;;;11.98;6.68;;;13.80;76.60;;;;;;5019105;28;20037;-77
2021/05/09 04:58:43;;;;;;;12.45;6.40;;;13.90;76.40;;;;;;5019361;28;20734;-76
2021/05/09 05:01:11;;;;;;;10.90;6.78;;;13.90;76.10;;;;;;5020609;28;20045;-81
2021/05/09 05:03:38;;;;;;;11.57;6.55;;;14.00;76.00;;;;;;5017933;28;20393;-76
2021/05/09 05:06:04;;;;;;;12.93;7.75;;;14.10;75.70;;;;;;5018844;28;20033;-77
2021/05/09 05:08:32;;;;;;;9.73;6.60;;;14.10;75.50;;;;;;5018565;28;20048;-80
2021/05/09 05:10:58;;;;;;;11.20;6.35;;;14.30;75.60;;;;;;5021011;28;20036;-77
2021/05/09 05:13:31;;;;;;;9.52;6.55;;;14.40;75.30;;;;;;5011617;28;20041;-77
2021/05/09 05:15:58;;;;;;;8.95;6.25;;;14.60;74.50;;;;;;5017326;28;20642;-75
2021/05/09 05:18:24;;;;;;;11.30;6.10;;;14.80;74.10;;;;;;5019100;28;20033;-75
2021/05/09 05:20:51;;;;;;;12.95;6.78;;;15.20;73.70;;;;;;5018992;28;20534;-79
2021/05/09 05:23:17;;;;;;;10.18;6.13;;;15.90;71.60;;;;;;5019936;28;20029;-76
2021/05/09 05:25:43;;;;;;;9.50;5.25;;;16.40;68.50;;;;;;5019604;28;20111;-79
2021/05/09 05:28:10;;;;;;;10.05;5.35;;;16.70;68.20;;;;;;5019943;28;20124;-78
2021/05/09 05:30:37;;;;;;;9.70;5.75;;;16.70;67.60;;;;;;5018003;28;20095;-82
2021/05/09 05:33:03;;;;;;;8.98;5.43;;;16.50;68.30;;;;;;5020740;28;20122;-84
2021/05/09 05:35:29;;;;;;;7.32;4.55;;;16.40;68.80;;;;;;5021045;28;20038;-79
2021/05/09 05:37:55;;;;;;;8.80;4.85;;;16.20;69.60;;;;;;5002997;28;20042;-81
2021/05/09 05:40:23;;;;;;;9.35;4.47;;;16.10;70.00;;;;;;5019864;28;20041;-82
2021/05/09 05:42:49;;;;;;;9.70;5.03;;;16.10;70.50;;;;;;5018867;28;20069;-77
2021/05/09 05:45:15;;;;;;;11.27;4.78;;;15.90;71.10;;;;;;5021408;28;20044;-77
2021/05/09 05:47:41;;;;;;;8.40;4.65;;;15.90;71.40;;;;;;5019571;28;20084;-78
2021/05/09 05:50:07;;;;;;;9.23;5.35;;;15.90;71.90;;;;;;5019336;28;20042;-77
2021/05/09 05:52:33;;;;;;;7.43;4.07;;;15.90;72.30;;;;;;5021330;28;20049;-79
2021/05/09 05:54:59;;;;;;;9.73;4.90;;;16.00;72.10;;;;;;5020923;28;20084;-77
2021/05/09 05:57:25;;;;;;;7.28;4.15;;;16.10;71.60;;;;;;5017702;28;20042;-76
2021/05/09 05:59:50;;;;;;;8.18;4.47;;;16.20;71.80;;;;;;5022302;28;20037;-79
2021/05/09 06:02:16;;;;;;;8.40;4.47;;;16.30;71.40;;;;;;5019391;28;20038;-77
2021/05/09 06:04:42;;;;;;;10.23;5.38;;;16.50;71.40;;;;;;5009114;28;20120;-80
2021/05/09 06:07:09;;;;;;;8.65;4.35;;;16.60;71.10;;;;;;5012667;28;20069;-80
2021/05/09 06:09:35;;;;;;;8.15;4.75;;;16.70;70.50;;;;;;5020616;28;20045;-78
2021/05/09 06:12:02;;;;;;;10.65;4.82;;;16.80;70.00;;;;;;5015915;28;20036;-79
2021/05/09 06:14:28;;;;;;;9.30;4.35;;;16.80;70.00;;;;;;5016916;28;20042;-75
2021/05/09 06:16:54;;;;;;;7.80;4.05;;;16.80;70.10;;;;;;5015435;28;20049;-75
2021/05/09 06:19:19;;;;;;;9.52;4.20;;;16.70;70.70;;;;;;5011864;28;20192;-75
2021/05/09 06:21:45;;;;;;;8.07;4.15;;;16.80;71.10;;;;;;5015601;28;20115;-79
2021/05/09 06:24:11;;;;;;;11.02;5.10;;;17.00;71.00;;;;;;5012488;28;20124;-79
2021/05/09 06:26:36;;;;;;;7.03;4.07;;;17.10;70.30;;;;;;5015727;28;20029;-76
2021/05/09 06:29:02;;;;;;;7.43;4.28;;;17.40;69.60;;;;;;5005988;28;20038;-82
2021/05/09 06:31:28;;;;;;;7.72;4.32;;;17.60;69.50;;;;;;5007615;28;20053;-75
2021/05/09 06:33:53;;;;;;;8.02;4.05;;;17.80;69.50;;;;;;5016747;28;20719;-78
2021/05/09 06:36:19;;;;;;;8.32;4.47;;;18.00;69.40;;;;;;5016004;28;21082;-77
2021/05/09 06:38:44;;;;;;;8.27;4.25;;;18.10;68.20;;;;;;5020076;28;20483;-81
2021/05/09 06:41:10;;;;;;;9.40;4.45;;;18.20;68.10;;;;;;5016839;28;20099;-81
2021/05/09 06:43:36;;;;;;;7.28;4.30;;;18.40;67.00;;;;;;5016646;28;20052;-79
2021/05/09 06:46:02;;;;;;;7.85;4.03;;;18.60;66.90;;;;;;5012771;28;20448;-81
2021/05/09 06:48:29;;;;;;;7.72;3.72;;;18.70;66.80;;;;;;5014879;28;20029;-76
2021/05/09 06:50:57;;;;;;;7.97;3.80;;;18.90;66.40;;;;;;5017706;28;20038;-76
2021/05/09 06:53:23;;;;;;;7.95;4.07;;;19.00;65.30;;;;;;5024730;28;20044;-76
2021/05/09 06:55:52;;;;;;;6.90;4.32;;;19.00;64.80;;;;;;5024730;28;20507;-76
2021/05/09 06:58:22;;;;;;;6.95;3.83;;;19.00;65.20;;;;;;5024415;28;20452;-75
2021/05/09 07:00:49;;;;;;;7.10;3.80;;;19.20;65.00;;;;;;5023911;28;20034;-76
2021/05/09 07:03:16;;;;;;;9.95;4.18;;;19.20;64.70;;;;;;5019131;28;20057;-76
2021/05/09 07:05:42;;;;;;;8.88;4.45;;;19.60;64.70;;;;;;5026465;28;20022;-76
2021/05/09 07:08:07;;;;;;;7.80;3.97;;;19.80;63.20;;;;;;5025396;28;21349;-77
2021/05/09 07:10:35;;;;;;;7.00;3.83;;;19.80;63.70;;;;;;5022882;28;20105;-77
2021/05/09 07:13:01;;;;;;;9.30;4.18;;;19.90;63.30;;;;;;5023634;28;20075;-80
2021/05/09 07:18:21;;;;;;;8.27;3.67;;;20.20;62.20;;;;;;5022064;28;20044;-78
2021/05/09 07:20:51;;;;;;;7.57;3.78;;;20.10;61.30;;;;;;5005417;28;20026;-75
2021/05/09 07:23:17;;;;;;;7.55;3.80;;;20.30;61.10;;;;;;5005478;28;20361;-74
2021/05/09 07:25:43;;;;;;;6.22;3.35;;;20.40;61.30;;;;;;5002189;28;20030;-78
2021/05/09 07:28:10;;;;;;;5.90;3.47;;;20.30;61.70;;;;;;4995025;28;20044;-75
2021/05/09 07:30:37;;;;;;;7.32;3.70;;;20.30;61.00;;;;;;5029141;28;20108;-75
2021/05/09 07:33:03;;;;;;;7.75;3.50;;;20.30;60.70;;;;;;5007181;28;20393;-75
2021/05/09 07:35:29;;;;;;;5.97;3.50;;;20.40;61.00;;;;;;5011383;28;20044;-76
2021/05/09 07:37:54;;;;;;;8.70;3.60;;;20.40;61.00;;;;;;5022088;28;20041;-80
2021/05/09 07:40:22;;;;;;;9.52;3.53;;;20.40;61.40;;;;;;5025033;28;20028;-76
2021/05/09 07:42:48;;;;;;;6.80;3.88;;;20.30;60.90;;;;;;5008685;28;20458;-81
2021/05/09 07:45:19;;;;;;;7.90;3.92;;;20.20;61.40;;;;;;4994302;28;20044;-72
2021/05/09 07:47:45;;;;;;;8.88;4.13;;;20.10;61.50;;;;;;5000477;28;20042;-70
2021/05/09 07:50:12;;;;;;;8.13;3.58;;;20.10;62.10;;;;;;5014528;28;20436;-69
2021/05/09 07:52:38;;;;;;;7.28;3.83;;;20.10;62.40;;;;;;5019156;28;20061;-69
2021/05/09 07:55:05;;;;;;;7.95;3.25;;;20.10;61.80;;;;;;5022661;28;20072;-70
2021/05/09 07:57:31;;;;;;;7.68;3.90;;;20.10;61.50;;;;;;5025303;28;20497;-69
2021/05/09 07:59:56;;;;;;;7.38;4.07;;;20.30;61.80;;;;;;5016180;28;20061;-71
2021/05/09 08:02:22;;;;;;;8.57;3.90;;;20.20;61.90;;;;;;5004096;28;20033;-70
2021/05/09 08:04:48;;;;;;;6.40;3.78;;;20.20;62.10;;;;;;5008477;28;20496;-73
2021/05/09 08:07:14;;;;;;;6.55;3.88;;;20.40;61.70;;;;;;5008026;28;20029;-69
2021/05/09 08:09:39;;;;;;;9.77;3.75;;;20.50;61.60;;;;;;5018389;28;20045;-73
2021/05/09 08:12:05;;;;;;;4.93;2.95;;;20.80;60.50;;;;;;5010846;28;20117;-70
2021/05/09 08:14:31;;;;;;;8.57;3.80;;;20.90;59.90;;;;;;5013594;28;20099;-69
2021/05/09 08:16:57;;;;;;;9.48;3.65;;;21.10;59.80;;;;;;5017463;28;20042;-69
2021/05/09 08:19:23;;;;;;;7.88;3.38;;;21.50;59.20;;;;;;5023727;28;20068;-69
2021/05/09 08:21:50;;;;;;;5.50;3.10;;;21.50;58.40;;;;;;5011677;28;20727;-72
2021/05/09 08:24:16;;;;;;;8.75;3.63;;;21.80;57.50;;;;;;4999721;28;20055;-70
2021/05/09 08:26:42;;;;;;;6.10;2.80;;;21.90;56.50;;;;;;4994917;28;20066;-69
2021/05/09 08:29:08;;;;;;;6.68;3.17;;;22.10;56.20;;;;;;5003068;28;20038;-72
2021/05/09 08:31:35;;;;;;;6.13;3.35;;;22.40;55.60;;;;;;5011755;28;20124;-71
2021/05/09 08:34:02;;;;;;;8.63;3.10;;;22.60;55.00;;;;;;5004668;28;20089;-72
2021/05/09 08:36:28;;;;;;;6.38;3.33;;;22.60;55.10;;;;;;4986050;28;20038;-74
2021/05/09 08:38:54;;;;;;;7.32;3.42;;;22.60;54.70;;;;;;4987979;28;20041;-70
2021/05/09 08:41:20;;;;;;;7.47;3.58;;;22.60;55.00;;;;;;5005217;28;20041;-74
2021/05/09 08:43:45;;;;;;;6.93;3.30;;;22.50;55.60;;;;;;5013053;28;20065;-73
2021/05/09 08:46:11;;;;;;;6.57;2.90;;;22.60;56.00;;;;;;5002908;28;20458;-71
2021/05/09 08:48:37;;;;;;;7.47;3.35;;;23.00;55.60;;;;;;5011286;28;20090;-74
2021/05/09 08:51:06;;;;;;;6.32;3.08;;;23.00;54.10;;;;;;5008719;28;20037;-71
2021/05/09 08:53:33;;;;;;;6.28;3.45;;;23.10;54.70;;;;;;5008223;28;20136;-74
2021/05/09 08:55:59;;;;;;;7.47;3.70;;;22.60;54.30;;;;;;5011306;28;20061;-73
2021/05/09 08:58:25;;;;;;;7.07;3.20;;;22.10;55.30;;;;;;5015253;28;20034;-74
2021/05/09 09:00:51;;;;;;;9.32;3.47;;;21.80;56.30;;;;;;5011316;28;20041;-76
2021/05/09 09:03:17;;;;;;;8.60;3.67;;;21.50;57.10;;;;;;5008542;28;20045;-75
2021/05/09 09:05:45;;;;;;;6.22;3.90;;;21.30;61.40;;;;;;5009081;28;20056;-69
2021/05/09 09:08:15;;;;;;;8.38;3.58;;;21.10;62.20;;;;;;5006849;28;20116;-75
2021/05/09 09:10:49;;;;;;;9.48;3.80;;;20.70;63.30;;;;;;5012623;28;20037;-75
2021/05/09 09:13:24;;;;;;;6.88;3.67;;;20.60;63.20;;;;;;5013047;28;20034;-71
2021/05/09 09:15:57;;;;;;;;;;;20.60;64.90;;;;;;5012040;28;20030;-70
2021/05/09 09:18:44;;;;;;;7.25;3.65;;;20.70;66.10;;;;;;5012036;28;19970;-70
2021/05/09 09:21:24;;;;;;;7.15;3.85;;;21.20;65.10;;;;;;5011509;28;20100;-71
2021/05/09 09:24:05;;;;;;;6.57;3.97;;;21.80;62.40;;;;;;5013539;28;20044;-72
2021/05/09 09:26:49;;;;;;;8.73;3.72;;;22.10;60.70;;;;;;5013424;28;20056;-73
2021/05/09 09:29:24;;;;;;;7.75;3.75;;;22.30;60.20;;;;;;5002469;28;20058;-73
2021/05/09 09:31:53;;;;;;;6.90;3.53;;;22.30;58.60;;;;;;4988880;28;20097;-70
2021/05/09 09:34:19;;;;;;;6.38;3.97;;;22.30;58.70;;;;;;5015738;28;20116;-71
2021/05/09 09:36:45;;;;;;;8.38;3.92;;;22.60;58.20;;;;;;5009611;28;21149;-69
2021/05/09 09:39:11;;;;;;;7.60;3.65;;;22.80;57.80;;;;;;5012739;28;20037;-70
2021/05/09 09:41:47;;;;;;;7.38;3.75;;;23.10;56.30;;;;;;5010249;28;20022;-73
2021/05/09 09:44:18;;;;;;;7.18;3.42;;;23.30;56.10;;;;;;5011497;28;20045;-73
2021/05/09 09:46:53;;;;;;;6.57;3.58;;;23.40;55.70;;;;;;5013554;28;20048;-74
2021/05/09 09:49:30;;;;;;;7.57;3.97;;;23.30;55.50;;;;;;4991912;28;20038;-70
2021/05/09 09:51:57;;;;;;;6.45;3.92;;;23.20;56.00;;;;;;5010610;28;20052;-70
2021/05/09 09:54:46;;;;;;;8.20;3.88;;;23.50;55.70;;;;;;5006323;28;20126;-72
2021/05/09 09:57:28;;;;;;;7.85;3.92;;;23.00;55.60;;;;;;4996279;28;20025;-69
2021/05/09 10:00:14;;;;;;;10.13;4.40;;;22.90;56.20;;;;;;5007669;28;20124;-72
2021/05/09 10:02:45;;;;;;;7.22;4.03;;;23.50;55.60;;;;;;5007811;28;20524;-69
2021/05/09 10:05:11;;;;;;;7.07;4.00;;;23.80;55.10;;;;;;5007333;28;20466;-71
2021/05/09 10:07:37;;;;;;;7.13;3.92;;;23.80;54.10;;;;;;5016337;28;20148;-72
2021/05/09 10:10:04;;;;;;;7.13;3.60;;;23.70;54.10;;;;;;5009922;28;20416;-69
2021/05/09 10:12:30;;;;;;;7.60;4.10;;;23.30;54.60;;;;;;4990289;28;20034;-73
2021/05/09 10:14:56;;;;;;;8.25;3.83;;;23.00;55.80;;;;;;5001588;28;20068;-73
2021/05/09 10:17:24;;;;;;;6.70;3.80;;;23.10;55.20;;;;;;5008773;28;20128;-73
2021/05/09 10:19:51;;;;;;;6.72;3.70;;;23.20;55.20;;;;;;5012666;28;20032;-68
2021/05/09 10:22:37;;;;;;;8.85;4.28;;;23.10;55.10;;;;;;5012645;28;20056;-71
2021/05/09 10:25:03;;;;;;;8.00;3.60;;;23.70;54.70;;;;;;5012693;28;20064;-72
2021/05/09 10:27:39;;;;;;;10.77;4.50;;;23.90;54.50;;;;;;5028866;28;20026;-71
2021/05/09 10:30:08;;;;;;;7.20;4.13;;;24.10;53.50;;;;;;5016418;28;20397;-73
2021/05/09 10:32:34;;;;;;;8.38;4.15;;;23.50;54.20;;;;;;5014026;28;20053;-75
2021/05/09 10:35:01;;;;;;;9.20;4.63;;;23.20;55.50;;;;;;5011651;28;20061;-73
2021/05/09 10:37:39;;;;;;;9.77;4.65;;;23.30;56.70;;;;;;5010152;28;20030;-73
2021/05/09 10:40:28;;;;;;;9.63;4.78;;;23.60;56.60;;;;;;4989810;28;20431;-77
2021/05/09 10:43:08;;;;;;;8.82;6.22;;;24.00;54.50;;;;;;4989598;28;20026;-73
2021/05/09 10:45:36;;;;;;;9.77;4.15;;;24.20;53.50;;;;;;5005072;28;20538;-73
2021/05/09 10:48:15;;;;;;;7.78;4.35;;;23.80;54.20;;;;;;5005379;28;20523;-76
2021/05/09 10:50:45;;;;;;;9.40;3.90;;;23.80;53.90;;;;;;5009888;28;20046;-75
2021/05/09 10:53:31;;;;;;;10.57;4.90;;;23.40;54.20;;;;;;5005766;28;20081;-70
2021/05/09 10:55:57;;;;;;;9.35;4.25;;;23.50;55.30;;;;;;5002771;28;20057;-76
2021/05/09 10:58:51;;;;;;;9.88;3.90;;;23.70;54.50;;;;;;4998090;28;20041;-72
2021/05/09 11:01:19;;;;;;;10.27;3.85;;;24.00;53.90;;;;;;5007742;28;20041;-74
2021/05/09 11:03:54;;;;;;;9.25;3.88;;;24.20;53.10;;;;;;5003222;28;21398;-71
2021/05/09 11:06:24;;;;;;;9.85;4.15;;;24.30;52.90;;;;;;5011191;28;20071;-75
2021/05/09 11:09:03;;;;;;;6.20;3.75;;;24.20;52.40;;;;;;5009343;28;20065;-71
2021/05/09 11:11:29;;;;;;;10.75;4.10;;;24.70;52.70;;;;;;5008150;28;20140;-72
2021/05/09 11:14:12;;;;;;;10.98;4.40;;;24.70;51.70;;;;;;4993945;28;20062;-77
2021/05/09 11:16:43;;;;;;;6.88;3.65;;;24.70;52.10;;;;;;5007001;28;20107;-72
2021/05/09 11:19:14;;;;;;;8.80;3.72;;;24.90;51.60;;;;;;5005322;28;20029;-72
2021/05/09 11:21:41;;;;;;;6.82;3.63;;;25.00;51.30;;;;;;5015698;28;20037;-71
2021/05/09 11:24:10;;;;;;;10.82;3.72;;;25.00;50.60;;;;;;5010512;28;20045;-70
2021/05/09 11:26:41;;;;;;;8.85;4.22;;;24.80;51.70;;;;;;5010234;28;20061;-73
2021/05/09 11:29:12;;;;;;;9.23;3.65;;;25.30;51.30;;;;;;5016800;28;20516;-71
2021/05/09 11:31:39;;;;;;;7.93;4.05;;;25.50;50.40;;;;;;5010783;28;20025;-70
2021/05/09 11:34:05;;;;;;;7.85;3.88;;;25.50;50.70;;;;;;5010835;28;20523;-70
2021/05/09 11:36:33;;;;;;;7.20;3.50;;;25.50;50.10;;;;;;5007940;28;20037;-72
2021/05/09 11:39:18;;;;;;;6.82;3.58;;;25.60;50.40;;;;;;4999932;28;20095;-70
2021/05/09 11:41:54;;;;;;;10.98;4.13;;;25.70;49.60;;;;;;5005244;28;20565;-71
2021/05/09 11:44:21;;;;;;;7.65;4.22;;;25.80;49.60;;;;;;5009904;28;21415;-70
2021/05/09 11:46:47;;;;;;;10.13;4.07;;;25.90;50.00;;;;;;5008977;28;20037;-70
2021/05/09 11:49:18;;;;;;;9.93;4.10;;;26.00;49.60;;;;;;5007230;28;20484;-70
2021/05/09 11:51:58;;;;;;;7.63;3.80;;;26.00;49.90;;;;;;5007029;28;20029;-70
2021/05/09 11:54:26;;;;;;;9.10;3.75;;;25.50;50.30;;;;;;5010133;28;20136;-70
2021/05/09 11:56:56;;;;;;;9.85;3.92;;;25.50;50.30;;;;;;5002691;28;20556;-70
2021/05/09 11:59:31;;;;;;;9.13;4.47;;;25.50;50.60;;;;;;4992137;28;20034;-71
2021/05/09 12:01:59;;;;;;;6.32;3.90;;;25.40;50.70;;;;;;4994588;28;20030;-71
2021/05/09 12:04:31;;;;;;;7.43;3.83;;;25.70;50.50;;;;;;4991753;28;20257;-69
2021/05/09 12:07:01;;;;;;;8.93;4.18;;;26.10;50.40;;;;;;5012604;28;20041;-71
2021/05/09 12:09:28;;;;;;;10.52;4.82;;;26.10;49.40;;;;;;5003311;28;20051;-72
2021/05/09 12:11:54;;;;;;;9.25;3.42;;;26.00;49.40;;;;;;5001964;28;20236;-69
2021/05/09 12:14:22;;;;;;;9.95;4.30;;;26.10;50.10;;;;;;5007660;28;20061;-70
2021/05/09 12:16:48;;;;;;;11.95;4.25;;;25.80;49.60;;;;;;5010615;28;20045;-69
2021/05/09 12:19:15;;;;;;;9.15;4.00;;;26.10;50.10;;;;;;5009721;28;20583;-70
2021/05/09 12:21:57;;;;;;;7.53;3.72;;;26.10;49.70;;;;;;5022187;28;20400;-72
2021/05/09 12:24:23;;;;;;;8.90;4.00;;;26.10;49.70;;;;;;4995476;28;20045;-70
2021/05/09 12:26:56;;;;;;;8.32;4.30;;;26.00;50.50;;;;;;4992795;28;20045;-74
2021/05/09 12:29:21;;;;;;;8.23;3.95;;;26.00;51.20;;;;;;5008193;28;20053;-73
2021/05/09 12:31:47;;;;;;;9.88;4.07;;;26.20;50.80;;;;;;5008988;28;20054;-73
2021/05/09 12:34:22;;;;;;;6.15;3.90;;;26.10;50.60;;;;;;5011251;28;20497;-72
2021/05/09 12:37:04;;;;;;;8.10;4.05;;;26.40;50.80;;;;;;5009783;28;20543;-73
2021/05/09 12:39:30;;;;;;;8.20;4.20;;;26.50;51.20;;;;;;5003611;28;20212;-69
2021/05/09 12:41:56;;;;;;;8.10;4.22;;;26.50;49.70;;;;;;5011687;28;20389;-71
2021/05/09 12:44:23;;;;;;;7.68;4.20;;;26.40;49.80;;;;;;4999896;28;20493;-70
2021/05/09 12:46:48;;;;;;;8.10;4.30;;;26.40;50.00;;;;;;4994491;28;20619;-71
2021/05/09 12:49:29;;;;;;;9.30;4.10;;;26.30;49.60;;;;;;5002821;28;20063;-70